sensor_id;sensor_type;location;lat;lon;timestamp;temperature;humidity
68746;SHT31;66104;45.456;11.064;2023-04-25T00:00:04;15.30;61.03
68746;SHT31;66104;45.456;11.064;2023-04-25T00:02:47;15.27;61.08
68746;SHT31;66104;45.456;11.064;2023-04-25T00:05:29;15.26;61.08
68746;SHT31;66104;45.456;11.064;2023-04-25T00:08:08;15.28;60.71
68746;SHT31;66104;45.456;11.064;2023-04-25T00:10:47;15.30;60.41
68746;SHT31;66104;45.456;11.064;2023-04-25T00:13:25;15.31;60.17
68746;SHT31;66104;45.456;11.064;2023-04-25T00:16:03;15.33;60.01
68746;SHT31;66104;45.456;11.064;2023-04-25T00:18:43;15.34;60.05
68746;SHT31;66104;45.456;11.064;2023-04-25T00:21:22;15.34;60.00
68746;SHT31;66104;45.456;11.064;2023-04-25T00:24:00;15.33;59.94
68746;SHT31;66104;45.456;11.064;2023-04-25T00:26:42;15.33;59.49
68746;SHT31;66104;45.456;11.064;2023-04-25T00:29:23;15.32;59.46
68746;SHT31;66104;45.456;11.064;2023-04-25T00:32:02;15.35;59.41
68746;SHT31;66104;45.456;11.064;2023-04-25T00:34:41;15.37;59.53
68746;SHT31;66104;45.456;11.064;2023-04-25T00:37:19;15.37;59.90
68746;SHT31;66104;45.456;11.064;2023-04-25T00:40:01;15.34;60.33
68746;SHT31;66104;45.456;11.064;2023-04-25T00:42:45;15.29;60.75
68746;SHT31;66104;45.456;11.064;2023-04-25T00:45:28;15.24;60.95
68746;SHT31;66104;45.456;11.064;2023-04-25T00:48:10;15.19;61.46
68746;SHT31;66104;45.456;11.064;2023-04-25T00:50:51;15.12;61.93
68746;SHT31;66104;45.456;11.064;2023-04-25T00:53:32;15.06;62.88
68746;SHT31;66104;45.456;11.064;2023-04-25T00:56:12;14.99;62.96
68746;SHT31;66104;45.456;11.064;2023-04-25T00:58:51;14.91;63.85
68746;SHT31;66104;45.456;11.064;2023-04-25T01:01:31;14.85;64.56
68746;SHT31;66104;45.456;11.064;2023-04-25T01:04:10;14.80;64.94
68746;SHT31;66104;45.456;11.064;2023-04-25T01:06:49;14.77;65.18
68746;SHT31;66104;45.456;11.064;2023-04-25T01:09:30;14.71;64.80
68746;SHT31;66104;45.456;11.064;2023-04-25T01:12:09;14.67;65.01
68746;SHT31;66104;45.456;11.064;2023-04-25T01:14:49;14.63;65.24
68746;SHT31;66104;45.456;11.064;2023-04-25T01:17:30;14.59;65.34
68746;SHT31;66104;45.456;11.064;2023-04-25T01:20:13;14.50;65.61
68746;SHT31;66104;45.456;11.064;2023-04-25T01:22:54;14.43;65.45
68746;SHT31;66104;45.456;11.064;2023-04-25T01:25:37;14.40;65.63
68746;SHT31;66104;45.456;11.064;2023-04-25T01:28:21;14.44;65.40
68746;SHT31;66104;45.456;11.064;2023-04-25T01:31:01;14.49;65.06
68746;SHT31;66104;45.456;11.064;2023-04-25T01:33:41;14.50;64.93
68746;SHT31;66104;45.456;11.064;2023-04-25T01:36:21;14.50;64.59
68746;SHT31;66104;45.456;11.064;2023-04-25T01:39:05;14.52;63.70
68746;SHT31;66104;45.456;11.064;2023-04-25T01:41:45;14.55;63.00
68746;SHT31;66104;45.456;11.064;2023-04-25T01:44:25;14.59;63.23
68746;SHT31;66104;45.456;11.064;2023-04-25T01:47:01;14.63;62.91
68746;SHT31;66104;45.456;11.064;2023-04-25T01:49:41;14.66;62.87
68746;SHT31;66104;45.456;11.064;2023-04-25T01:52:19;14.73;62.83
68746;SHT31;66104;45.456;11.064;2023-04-25T01:54:57;14.78;62.34
68746;SHT31;66104;45.456;11.064;2023-04-25T01:57:52;14.80;62.26
68746;SHT31;66104;45.456;11.064;2023-04-25T02:00:50;14.82;62.01
68746;SHT31;66104;45.456;11.064;2023-04-25T02:03:30;14.85;61.35
68746;SHT31;66104;45.456;11.064;2023-04-25T02:06:14;14.88;60.42
68746;SHT31;66104;45.456;11.064;2023-04-25T02:08:53;14.90;60.32
68746;SHT31;66104;45.456;11.064;2023-04-25T02:11:31;14.97;60.14
68746;SHT31;66104;45.456;11.064;2023-04-25T02:14:23;15.04;59.94
68746;SHT31;66104;45.456;11.064;2023-04-25T02:17:12;15.09;59.38
68746;SHT31;66104;45.456;11.064;2023-04-25T02:19:52;15.09;59.34
68746;SHT31;66104;45.456;11.064;2023-04-25T02:22:32;15.09;58.75
68746;SHT31;66104;45.456;11.064;2023-04-25T02:25:14;15.08;58.68
68746;SHT31;66104;45.456;11.064;2023-04-25T02:27:54;15.08;58.01
68746;SHT31;66104;45.456;11.064;2023-04-25T02:30:35;15.11;57.89
68746;SHT31;66104;45.456;11.064;2023-04-25T02:33:13;15.13;56.95
68746;SHT31;66104;45.456;11.064;2023-04-25T02:35:51;15.13;57.18
68746;SHT31;66104;45.456;11.064;2023-04-25T02:38:30;15.13;56.65
68746;SHT31;66104;45.456;11.064;2023-04-25T02:41:07;15.14;56.07
68746;SHT31;66104;45.456;11.064;2023-04-25T02:43:47;15.16;56.14
68746;SHT31;66104;45.456;11.064;2023-04-25T02:46:26;15.18;56.06
68746;SHT31;66104;45.456;11.064;2023-04-25T02:49:08;15.19;56.12
68746;SHT31;66104;45.456;11.064;2023-04-25T02:51:47;15.22;55.86
68746;SHT31;66104;45.456;11.064;2023-04-25T02:54:27;15.26;57.61
68746;SHT31;66104;45.456;11.064;2023-04-25T02:57:09;15.31;58.15
68746;SHT31;66104;45.456;11.064;2023-04-25T02:59:49;15.34;60.61
68746;SHT31;66104;45.456;11.064;2023-04-25T03:02:28;15.32;62.06
68746;SHT31;66104;45.456;11.064;2023-04-25T03:05:08;15.25;60.92
68746;SHT31;66104;45.456;11.064;2023-04-25T03:07:46;15.12;60.46
68746;SHT31;66104;45.456;11.064;2023-04-25T03:10:28;14.93;60.20
68746;SHT31;66104;45.456;11.064;2023-04-25T03:13:10;14.76;61.94
68746;SHT31;66104;45.456;11.064;2023-04-25T03:15:49;14.46;64.38
68746;SHT31;66104;45.456;11.064;2023-04-25T03:18:27;14.24;64.26
68746;SHT31;66104;45.456;11.064;2023-04-25T03:21:08;14.16;63.83
68746;SHT31;66104;45.456;11.064;2023-04-25T03:23:47;14.16;63.31
68746;SHT31;66104;45.456;11.064;2023-04-25T03:26:25;14.19;63.30
68746;SHT31;66104;45.456;11.064;2023-04-25T03:29:04;14.25;63.34
68746;SHT31;66104;45.456;11.064;2023-04-25T03:31:44;14.27;62.98
68746;SHT31;66104;45.456;11.064;2023-04-25T03:34:20;14.29;62.96
68746;SHT31;66104;45.456;11.064;2023-04-25T03:36:57;14.32;62.90
68746;SHT31;66104;45.456;11.064;2023-04-25T03:39:37;14.35;62.67
68746;SHT31;66104;45.456;11.064;2023-04-25T03:42:17;14.40;63.54
68746;SHT31;66104;45.456;11.064;2023-04-25T03:44:54;14.42;64.47
68746;SHT31;66104;45.456;11.064;2023-04-25T03:47:32;14.37;65.76
68746;SHT31;66104;45.456;11.064;2023-04-25T03:50:12;14.23;66.11
68746;SHT31;66104;45.456;11.064;2023-04-25T03:52:52;14.11;64.96
68746;SHT31;66104;45.456;11.064;2023-04-25T03:55:31;14.12;63.18
68746;SHT31;66104;45.456;11.064;2023-04-25T03:58:11;14.17;62.82
68746;SHT31;66104;45.456;11.064;2023-04-25T04:00:49;14.21;62.59
68746;SHT31;66104;45.456;11.064;2023-04-25T04:03:26;14.26;61.86
68746;SHT31;66104;45.456;11.064;2023-04-25T04:06:04;14.35;60.95
68746;SHT31;66104;45.456;11.064;2023-04-25T04:08:47;14.41;60.62
68746;SHT31;66104;45.456;11.064;2023-04-25T04:11:25;14.42;61.04
68746;SHT31;66104;45.456;11.064;2023-04-25T04:14:02;14.41;61.03
68746;SHT31;66104;45.456;11.064;2023-04-25T04:16:43;14.36;60.80
68746;SHT31;66104;45.456;11.064;2023-04-25T04:19:20;14.32;60.92
68746;SHT31;66104;45.456;11.064;2023-04-25T04:22:11;14.26;60.78
68746;SHT31;66104;45.456;11.064;2023-04-25T04:24:49;14.23;60.66
68746;SHT31;66104;45.456;11.064;2023-04-25T04:27:49;14.19;60.39
68746;SHT31;66104;45.456;11.064;2023-04-25T04:30:47;14.18;60.80
68746;SHT31;66104;45.456;11.064;2023-04-25T04:33:26;14.17;61.13
68746;SHT31;66104;45.456;11.064;2023-04-25T04:36:05;14.14;60.98
68746;SHT31;66104;45.456;11.064;2023-04-25T04:38:43;14.15;61.30
68746;SHT31;66104;45.456;11.064;2023-04-25T04:41:33;14.15;61.60
68746;SHT31;66104;45.456;11.064;2023-04-25T04:44:32;14.14;61.65
68746;SHT31;66104;45.456;11.064;2023-04-25T04:47:28;14.11;62.18
68746;SHT31;66104;45.456;11.064;2023-04-25T04:50:32;14.06;62.25
68746;SHT31;66104;45.456;11.064;2023-04-25T04:53:18;14.03;62.17
68746;SHT31;66104;45.456;11.064;2023-04-25T04:55:56;14.02;62.37
68746;SHT31;66104;45.456;11.064;2023-04-25T04:58:36;14.01;62.60
68746;SHT31;66104;45.456;11.064;2023-04-25T05:01:29;14.03;62.38
68746;SHT31;66104;45.456;11.064;2023-04-25T05:04:25;14.03;62.20
68746;SHT31;66104;45.456;11.064;2023-04-25T05:07:27;14.10;62.27
68746;SHT31;66104;45.456;11.064;2023-04-25T05:10:39;14.16;62.10
68746;SHT31;66104;45.456;11.064;2023-04-25T05:13:34;14.22;61.93
68746;SHT31;66104;45.456;11.064;2023-04-25T05:16:27;14.27;61.74
68746;SHT31;66104;45.456;11.064;2023-04-25T05:19:25;14.30;61.53
68746;SHT31;66104;45.456;11.064;2023-04-25T05:22:25;14.33;60.81
68746;SHT31;66104;45.456;11.064;2023-04-25T05:25:14;14.29;62.40
68746;SHT31;66104;45.456;11.064;2023-04-25T05:28:29;13.85;63.60
68746;SHT31;66104;45.456;11.064;2023-04-25T05:31:23;13.38;63.87
68746;SHT31;66104;45.456;11.064;2023-04-25T05:34:08;12.97;65.33
68746;SHT31;66104;45.456;11.064;2023-04-25T05:37:05;12.67;67.05
68746;SHT31;66104;45.456;11.064;2023-04-25T05:39:53;12.53;68.18
68746;SHT31;66104;45.456;11.064;2023-04-25T05:42:50;12.40;69.19
68746;SHT31;66104;45.456;11.064;2023-04-25T05:45:45;12.31;70.55
68746;SHT31;66104;45.456;11.064;2023-04-25T05:48:28;12.20;71.06
68746;SHT31;66104;45.456;11.064;2023-04-25T05:51:27;12.22;71.48
68746;SHT31;66104;45.456;11.064;2023-04-25T05:54:28;12.24;72.56
68746;SHT31;66104;45.456;11.064;2023-04-25T05:57:05;12.26;72.98
68746;SHT31;66104;45.456;11.064;2023-04-25T05:59:55;12.29;72.47
68746;SHT31;66104;45.456;11.064;2023-04-25T06:02:43;12.32;72.58
68746;SHT31;66104;45.456;11.064;2023-04-25T06:05:20;12.24;72.85
68746;SHT31;66104;45.456;11.064;2023-04-25T06:07:57;12.17;73.33
68746;SHT31;66104;45.456;11.064;2023-04-25T06:10:35;12.15;73.38
68746;SHT31;66104;45.456;11.064;2023-04-25T06:13:12;12.17;72.87
68746;SHT31;66104;45.456;11.064;2023-04-25T06:15:51;12.19;70.80
68746;SHT31;66104;45.456;11.064;2023-04-25T06:18:29;12.19;70.41
68746;SHT31;66104;45.456;11.064;2023-04-25T06:21:06;12.20;69.68
68746;SHT31;66104;45.456;11.064;2023-04-25T06:23:43;12.24;69.40
68746;SHT31;66104;45.456;11.064;2023-04-25T06:26:23;12.25;69.76
68746;SHT31;66104;45.456;11.064;2023-04-25T06:29:01;12.27;70.10
68746;SHT31;66104;45.456;11.064;2023-04-25T06:31:39;12.36;70.30
68746;SHT31;66104;45.456;11.064;2023-04-25T06:34:16;12.43;70.16
68746;SHT31;66104;45.456;11.064;2023-04-25T06:36:55;12.51;70.50
68746;SHT31;66104;45.456;11.064;2023-04-25T06:39:33;12.58;70.26
68746;SHT31;66104;45.456;11.064;2023-04-25T06:42:09;12.65;70.33
68746;SHT31;66104;45.456;11.064;2023-04-25T06:44:53;12.72;70.30
68746;SHT31;66104;45.456;11.064;2023-04-25T06:47:30;12.73;70.52
68746;SHT31;66104;45.456;11.064;2023-04-25T06:50:10;12.75;70.68
68746;SHT31;66104;45.456;11.064;2023-04-25T06:52:47;12.80;70.52
68746;SHT31;66104;45.456;11.064;2023-04-25T06:55:25;12.82;70.29
68746;SHT31;66104;45.456;11.064;2023-04-25T06:58:14;12.79;70.38
68746;SHT31;66104;45.456;11.064;2023-04-25T07:01:11;12.78;69.98
68746;SHT31;66104;45.456;11.064;2023-04-25T07:03:48;12.78;70.24
68746;SHT31;66104;45.456;11.064;2023-04-25T07:06:26;12.77;69.76
68746;SHT31;66104;45.456;11.064;2023-04-25T07:09:03;12.75;70.22
68746;SHT31;66104;45.456;11.064;2023-04-25T07:11:43;12.68;68.99
68746;SHT31;66104;45.456;11.064;2023-04-25T07:14:20;12.61;68.66
68746;SHT31;66104;45.456;11.064;2023-04-25T07:16:57;12.57;69.28
68746;SHT31;66104;45.456;11.064;2023-04-25T07:19:36;12.55;68.78
68746;SHT31;66104;45.456;11.064;2023-04-25T07:22:13;12.53;68.58
68746;SHT31;66104;45.456;11.064;2023-04-25T07:24:50;12.52;68.67
68746;SHT31;66104;45.456;11.064;2023-04-25T07:27:27;12.54;68.55
68746;SHT31;66104;45.456;11.064;2023-04-25T07:30:14;12.56;68.32
68746;SHT31;66104;45.456;11.064;2023-04-25T07:32:50;12.57;68.91
68746;SHT31;66104;45.456;11.064;2023-04-25T07:35:27;12.55;68.76
68746;SHT31;66104;45.456;11.064;2023-04-25T07:38:05;12.52;69.01
68746;SHT31;66104;45.456;11.064;2023-04-25T07:40:42;12.50;69.20
68746;SHT31;66104;45.456;11.064;2023-04-25T07:43:18;12.51;70.07
68746;SHT31;66104;45.456;11.064;2023-04-25T07:45:58;12.52;70.76
68746;SHT31;66104;45.456;11.064;2023-04-25T07:48:36;12.52;70.33
68746;SHT31;66104;45.456;11.064;2023-04-25T07:51:14;12.53;69.38
68746;SHT31;66104;45.456;11.064;2023-04-25T07:53:53;12.56;68.77
68746;SHT31;66104;45.456;11.064;2023-04-25T07:56:31;12.60;68.02
68746;SHT31;66104;45.456;11.064;2023-04-25T07:59:22;12.69;68.77
68746;SHT31;66104;45.456;11.064;2023-04-25T08:02:01;12.89;68.90
68746;SHT31;66104;45.456;11.064;2023-04-25T08:04:39;13.12;68.23
68746;SHT31;66104;45.456;11.064;2023-04-25T08:07:18;13.34;68.32
68746;SHT31;66104;45.456;11.064;2023-04-25T08:09:56;13.55;67.60
68746;SHT31;66104;45.456;11.064;2023-04-25T08:12:34;13.67;66.11
68746;SHT31;66104;45.456;11.064;2023-04-25T08:15:12;13.76;64.73
68746;SHT31;66104;45.456;11.064;2023-04-25T08:17:50;13.86;64.88
68746;SHT31;66104;45.456;11.064;2023-04-25T08:20:31;13.90;63.90
68746;SHT31;66104;45.456;11.064;2023-04-25T08:23:11;13.90;62.89
68746;SHT31;66104;45.456;11.064;2023-04-25T08:26:14;13.92;63.08
68746;SHT31;66104;45.456;11.064;2023-04-25T08:28:52;13.99;63.16
68746;SHT31;66104;45.456;11.064;2023-04-25T08:31:29;14.01;62.86
68746;SHT31;66104;45.456;11.064;2023-04-25T08:34:08;14.00;62.34
68746;SHT31;66104;45.456;11.064;2023-04-25T08:36:49;14.05;62.99
68746;SHT31;66104;45.456;11.064;2023-04-25T08:39:49;14.07;61.51
68746;SHT31;66104;45.456;11.064;2023-04-25T08:42:43;14.09;61.61
68746;SHT31;66104;45.456;11.064;2023-04-25T08:45:22;14.13;61.07
68746;SHT31;66104;45.456;11.064;2023-04-25T08:48:02;14.23;60.70
68746;SHT31;66104;45.456;11.064;2023-04-25T08:50:47;14.35;59.77
68746;SHT31;66104;45.456;11.064;2023-04-25T08:53:28;14.45;59.12
68746;SHT31;66104;45.456;11.064;2023-04-25T08:56:06;14.53;59.01
68746;SHT31;66104;45.456;11.064;2023-04-25T08:58:49;14.64;58.55
68746;SHT31;66104;45.456;11.064;2023-04-25T09:01:28;14.75;57.87
68746;SHT31;66104;45.456;11.064;2023-04-25T09:04:05;14.88;58.39
68746;SHT31;66104;45.456;11.064;2023-04-25T09:06:45;15.02;58.04
68746;SHT31;66104;45.456;11.064;2023-04-25T09:09:22;15.13;58.14
68746;SHT31;66104;45.456;11.064;2023-04-25T09:12:01;15.23;56.74
68746;SHT31;66104;45.456;11.064;2023-04-25T09:14:41;15.30;56.69
68746;SHT31;66104;45.456;11.064;2023-04-25T09:17:50;15.40;56.76
68746;SHT31;66104;45.456;11.064;2023-04-25T09:20:43;15.51;57.18
68746;SHT31;66104;45.456;11.064;2023-04-25T09:23:24;15.64;56.37
68746;SHT31;66104;45.456;11.064;2023-04-25T09:26:02;15.71;56.46
68746;SHT31;66104;45.456;11.064;2023-04-25T09:28:45;15.80;55.52
68746;SHT31;66104;45.456;11.064;2023-04-25T09:31:38;15.87;56.38
68746;SHT31;66104;45.456;11.064;2023-04-25T09:34:16;15.94;57.13
68746;SHT31;66104;45.456;11.064;2023-04-25T09:36:57;15.99;57.36
68746;SHT31;66104;45.456;11.064;2023-04-25T09:40:15;16.06;57.38
68746;SHT31;66104;45.456;11.064;2023-04-25T09:43:03;16.16;57.46
68746;SHT31;66104;45.456;11.064;2023-04-25T09:45:53;16.30;57.06
68746;SHT31;66104;45.456;11.064;2023-04-25T09:48:31;16.41;56.98
68746;SHT31;66104;45.456;11.064;2023-04-25T09:51:10;16.53;56.84
68746;SHT31;66104;45.456;11.064;2023-04-25T09:53:48;16.61;55.90
68746;SHT31;66104;45.456;11.064;2023-04-25T09:56:46;16.69;55.57
68746;SHT31;66104;45.456;11.064;2023-04-25T09:59:25;16.79;55.44
68746;SHT31;66104;45.456;11.064;2023-04-25T10:02:06;16.86;55.63
68746;SHT31;66104;45.456;11.064;2023-04-25T10:04:47;16.99;55.75
68746;SHT31;66104;45.456;11.064;2023-04-25T10:07:31;17.06;54.87
68746;SHT31;66104;45.456;11.064;2023-04-25T10:10:17;17.07;55.20
68746;SHT31;66104;45.456;11.064;2023-04-25T10:12:59;17.18;55.22
68746;SHT31;66104;45.456;11.064;2023-04-25T10:15:43;17.16;54.09
68746;SHT31;66104;45.456;11.064;2023-04-25T10:18:23;17.19;54.56
68746;SHT31;66104;45.456;11.064;2023-04-25T10:21:04;17.25;53.74
68746;SHT31;66104;45.456;11.064;2023-04-25T10:23:43;17.21;54.37
68746;SHT31;66104;45.456;11.064;2023-04-25T10:26:22;17.32;54.62
68746;SHT31;66104;45.456;11.064;2023-04-25T10:29:02;17.49;53.98
68746;SHT31;66104;45.456;11.064;2023-04-25T10:31:46;17.58;53.30
68746;SHT31;66104;45.456;11.064;2023-04-25T10:34:37;17.57;53.13
68746;SHT31;66104;45.456;11.064;2023-04-25T10:37:17;17.61;53.10
68746;SHT31;66104;45.456;11.064;2023-04-25T10:39:55;17.65;52.33
68746;SHT31;66104;45.456;11.064;2023-04-25T10:43:32;17.67;50.94
68746;SHT31;66104;45.456;11.064;2023-04-25T10:46:19;17.70;51.74
68746;SHT31;66104;45.456;11.064;2023-04-25T10:49:00;17.75;51.06
68746;SHT31;66104;45.456;11.064;2023-04-25T10:51:44;17.72;51.89
68746;SHT31;66104;45.456;11.064;2023-04-25T10:54:23;17.64;51.78
68746;SHT31;66104;45.456;11.064;2023-04-25T10:57:04;17.58;50.94
68746;SHT31;66104;45.456;11.064;2023-04-25T11:00:17;17.46;51.92
68746;SHT31;66104;45.456;11.064;2023-04-25T11:03:15;17.53;51.72
68746;SHT31;66104;45.456;11.064;2023-04-25T11:06:01;17.57;51.89
68746;SHT31;66104;45.456;11.064;2023-04-25T11:08:49;17.60;50.86
68746;SHT31;66104;45.456;11.064;2023-04-25T11:11:28;17.43;50.87
68746;SHT31;66104;45.456;11.064;2023-04-25T11:14:08;17.41;52.08
68746;SHT31;66104;45.456;11.064;2023-04-25T11:16:45;17.57;52.96
68746;SHT31;66104;45.456;11.064;2023-04-25T11:19:47;17.67;53.21
68746;SHT31;66104;45.456;11.064;2023-04-25T11:22:26;17.44;53.76
68746;SHT31;66104;45.456;11.064;2023-04-25T11:25:06;17.43;55.25
68746;SHT31;66104;45.456;11.064;2023-04-25T11:27:51;17.40;55.15
68746;SHT31;66104;45.456;11.064;2023-04-25T11:30:30;17.44;54.20
68746;SHT31;66104;45.456;11.064;2023-04-25T11:33:06;17.43;53.73
68746;SHT31;66104;45.456;11.064;2023-04-25T11:35:43;17.56;54.07
68746;SHT31;66104;45.456;11.064;2023-04-25T11:38:20;17.48;53.14
68746;SHT31;66104;45.456;11.064;2023-04-25T11:40:59;17.33;52.52
68746;SHT31;66104;45.456;11.064;2023-04-25T11:43:36;17.21;52.74
68746;SHT31;66104;45.456;11.064;2023-04-25T11:46:14;17.19;54.03
68746;SHT31;66104;45.456;11.064;2023-04-25T11:48:52;17.21;54.18
68746;SHT31;66104;45.456;11.064;2023-04-25T11:51:39;17.11;53.39
68746;SHT31;66104;45.456;11.064;2023-04-25T11:54:18;16.99;55.65
68746;SHT31;66104;45.456;11.064;2023-04-25T11:56:58;16.92;54.46
68746;SHT31;66104;45.456;11.064;2023-04-25T11:59:35;16.80;54.59
68746;SHT31;66104;45.456;11.064;2023-04-25T12:02:25;16.74;55.42
68746;SHT31;66104;45.456;11.064;2023-04-25T12:05:03;16.67;56.45
68746;SHT31;66104;45.456;11.064;2023-04-25T12:08:00;16.58;57.40
68746;SHT31;66104;45.456;11.064;2023-04-25T12:10:47;16.51;57.13
68746;SHT31;66104;45.456;11.064;2023-04-25T12:13:26;16.43;58.32
68746;SHT31;66104;45.456;11.064;2023-04-25T12:16:06;16.35;58.67
68746;SHT31;66104;45.456;11.064;2023-04-25T12:18:43;16.23;60.44
68746;SHT31;66104;45.456;11.064;2023-04-25T12:21:22;16.04;61.29
68746;SHT31;66104;45.456;11.064;2023-04-25T12:24:18;15.76;61.87
68746;SHT31;66104;45.456;11.064;2023-04-25T12:27:00;15.58;63.01
68746;SHT31;66104;45.456;11.064;2023-04-25T12:29:39;15.43;63.05
68746;SHT31;66104;45.456;11.064;2023-04-25T12:32:24;15.34;63.41
68746;SHT31;66104;45.456;11.064;2023-04-25T12:35:01;15.20;63.90
68746;SHT31;66104;45.456;11.064;2023-04-25T12:37:40;15.03;64.44
68746;SHT31;66104;45.456;11.064;2023-04-25T12:40:18;14.88;65.09
68746;SHT31;66104;45.456;11.064;2023-04-25T12:42:56;14.78;65.88
68746;SHT31;66104;45.456;11.064;2023-04-25T12:45:33;14.72;66.16
68746;SHT31;66104;45.456;11.064;2023-04-25T12:48:09;14.70;66.46
68746;SHT31;66104;45.456;11.064;2023-04-25T12:50:46;14.66;66.53
68746;SHT31;66104;45.456;11.064;2023-04-25T12:53:24;14.63;66.90
68746;SHT31;66104;45.456;11.064;2023-04-25T12:56:03;14.59;67.03
68746;SHT31;66104;45.456;11.064;2023-04-25T12:58:43;14.55;67.43
68746;SHT31;66104;45.456;11.064;2023-04-25T13:01:19;14.53;68.03
68746;SHT31;66104;45.456;11.064;2023-04-25T13:03:57;14.51;67.68
68746;SHT31;66104;45.456;11.064;2023-04-25T13:06:33;14.49;67.08
68746;SHT31;66104;45.456;11.064;2023-04-25T13:09:10;14.46;67.29
68746;SHT31;66104;45.456;11.064;2023-04-25T13:11:47;14.47;67.98
68746;SHT31;66104;45.456;11.064;2023-04-25T13:14:27;14.52;66.94
68746;SHT31;66104;45.456;11.064;2023-04-25T13:17:04;14.55;66.76
68746;SHT31;66104;45.456;11.064;2023-04-25T13:19:41;14.57;67.37
68746;SHT31;66104;45.456;11.064;2023-04-25T13:22:18;14.61;67.26
68746;SHT31;66104;45.456;11.064;2023-04-25T13:24:55;14.67;67.91
68746;SHT31;66104;45.456;11.064;2023-04-25T13:27:32;14.67;67.71
68746;SHT31;66104;45.456;11.064;2023-04-25T13:30:10;14.71;67.84
68746;SHT31;66104;45.456;11.064;2023-04-25T13:32:48;14.70;66.19
68746;SHT31;66104;45.456;11.064;2023-04-25T13:35:32;14.71;66.57
68746;SHT31;66104;45.456;11.064;2023-04-25T13:38:09;14.74;66.67
68746;SHT31;66104;45.456;11.064;2023-04-25T13:40:46;14.78;66.55
68746;SHT31;66104;45.456;11.064;2023-04-25T13:43:23;14.81;66.82
68746;SHT31;66104;45.456;11.064;2023-04-25T13:46:00;14.81;67.47
68746;SHT31;66104;45.456;11.064;2023-04-25T13:48:58;14.83;67.96
68746;SHT31;66104;45.456;11.064;2023-04-25T13:51:41;14.82;68.46
68746;SHT31;66104;45.456;11.064;2023-04-25T13:54:19;14.74;68.24
68746;SHT31;66104;45.456;11.064;2023-04-25T13:56:55;14.68;68.89
68746;SHT31;66104;45.456;11.064;2023-04-25T13:59:32;14.66;68.98
68746;SHT31;66104;45.456;11.064;2023-04-25T14:02:10;14.64;68.59
68746;SHT31;66104;45.456;11.064;2023-04-25T14:04:46;14.55;68.25
68746;SHT31;66104;45.456;11.064;2023-04-25T14:07:23;14.43;69.75
68746;SHT31;66104;45.456;11.064;2023-04-25T14:10:01;14.41;70.60
68746;SHT31;66104;45.456;11.064;2023-04-25T14:12:41;14.39;70.85
68746;SHT31;66104;45.456;11.064;2023-04-25T14:15:18;14.44;71.25
68746;SHT31;66104;45.456;11.064;2023-04-25T14:17:55;14.49;71.07
68746;SHT31;66104;45.456;11.064;2023-04-25T14:20:32;14.52;71.00
68746;SHT31;66104;45.456;11.064;2023-04-25T14:23:09;14.56;71.00
68746;SHT31;66104;45.456;11.064;2023-04-25T14:25:47;14.61;70.74
68746;SHT31;66104;45.456;11.064;2023-04-25T14:28:24;14.61;71.11
68746;SHT31;66104;45.456;11.064;2023-04-25T14:31:00;14.63;71.41
68746;SHT31;66104;45.456;11.064;2023-04-25T14:33:37;14.65;71.37
68746;SHT31;66104;45.456;11.064;2023-04-25T14:36:14;14.64;71.31
68746;SHT31;66104;45.456;11.064;2023-04-25T14:38:51;14.65;70.84
68746;SHT31;66104;45.456;11.064;2023-04-25T14:41:28;14.70;71.19
68746;SHT31;66104;45.456;11.064;2023-04-25T14:44:05;14.75;70.86
68746;SHT31;66104;45.456;11.064;2023-04-25T14:46:42;14.76;71.06
68746;SHT31;66104;45.456;11.064;2023-04-25T14:49:20;14.78;71.50
68746;SHT31;66104;45.456;11.064;2023-04-25T14:51:57;14.81;71.78
68746;SHT31;66104;45.456;11.064;2023-04-25T14:54:34;14.89;71.55
68746;SHT31;66104;45.456;11.064;2023-04-25T14:57:11;14.97;71.10
68746;SHT31;66104;45.456;11.064;2023-04-25T14:59:48;15.04;70.06
68746;SHT31;66104;45.456;11.064;2023-04-25T15:02:25;15.12;69.81
68746;SHT31;66104;45.456;11.064;2023-04-25T15:05:02;15.23;69.50
68746;SHT31;66104;45.456;11.064;2023-04-25T15:07:41;15.35;68.82
68746;SHT31;66104;45.456;11.064;2023-04-25T15:10:20;15.47;68.92
68746;SHT31;66104;45.456;11.064;2023-04-25T15:12:56;15.61;68.40
68746;SHT31;66104;45.456;11.064;2023-04-25T15:15:34;15.63;67.96
68746;SHT31;66104;45.456;11.064;2023-04-25T15:18:12;15.60;67.42
68746;SHT31;66104;45.456;11.064;2023-04-25T15:20:52;15.52;67.10
68746;SHT31;66104;45.456;11.064;2023-04-25T15:23:29;15.57;67.41
68746;SHT31;66104;45.456;11.064;2023-04-25T15:26:06;15.73;67.20
68746;SHT31;66104;45.456;11.064;2023-04-25T15:28:44;15.87;66.05
68746;SHT31;66104;45.456;11.064;2023-04-25T15:31:22;15.90;66.00
68746;SHT31;66104;45.456;11.064;2023-04-25T15:33:59;15.99;65.00
68746;SHT31;66104;45.456;11.064;2023-04-25T15:36:37;16.08;64.57
68746;SHT31;66104;45.456;11.064;2023-04-25T15:39:13;16.20;64.60
68746;SHT31;66104;45.456;11.064;2023-04-25T15:41:51;16.30;63.66
68746;SHT31;66104;45.456;11.064;2023-04-25T15:44:28;16.37;64.07
68746;SHT31;66104;45.456;11.064;2023-04-25T15:47:06;16.44;62.07
68746;SHT31;66104;45.456;11.064;2023-04-25T15:49:43;16.46;62.04
68746;SHT31;66104;45.456;11.064;2023-04-25T15:52:21;16.49;61.79
68746;SHT31;66104;45.456;11.064;2023-04-25T15:55:02;16.53;61.88
68746;SHT31;66104;45.456;11.064;2023-04-25T15:57:43;16.58;60.96
68746;SHT31;66104;45.456;11.064;2023-04-25T16:00:22;16.57;60.13
68746;SHT31;66104;45.456;11.064;2023-04-25T16:03:04;16.55;60.00
68746;SHT31;66104;45.456;11.064;2023-04-25T16:05:42;16.54;60.87
68746;SHT31;66104;45.456;11.064;2023-04-25T16:08:20;16.54;62.72
68746;SHT31;66104;45.456;11.064;2023-04-25T16:11:02;16.53;62.92
68746;SHT31;66104;45.456;11.064;2023-04-25T16:13:42;16.54;63.30
68746;SHT31;66104;45.456;11.064;2023-04-25T16:16:19;16.57;62.80
68746;SHT31;66104;45.456;11.064;2023-04-25T16:18:57;16.58;62.58
68746;SHT31;66104;45.456;11.064;2023-04-25T16:21:34;16.59;62.37
68746;SHT31;66104;45.456;11.064;2023-04-25T16:24:12;16.59;61.75
68746;SHT31;66104;45.456;11.064;2023-04-25T16:26:51;16.59;62.11
68746;SHT31;66104;45.456;11.064;2023-04-25T16:29:28;16.64;62.16
68746;SHT31;66104;45.456;11.064;2023-04-25T16:32:05;16.67;62.34
68746;SHT31;66104;45.456;11.064;2023-04-25T16:34:44;16.70;62.33
68746;SHT31;66104;45.456;11.064;2023-04-25T16:37:24;16.68;62.07
68746;SHT31;66104;45.456;11.064;2023-04-25T16:40:04;16.63;61.49
68746;SHT31;66104;45.456;11.064;2023-04-25T16:42:46;16.59;61.68